sensor_id;sensor_type;location;lat;lon;timestamp;temperature;humidity
64561;DHT22;50960;46.838;16.838;2023-03-21T00:01:59;9.30;85.60
64561;DHT22;50960;46.838;16.838;2023-03-21T00:04:27;9.30;85.30
64561;DHT22;50960;46.838;16.838;2023-03-21T00:06:53;9.30;86.00
64561;DHT22;50960;46.838;16.838;2023-03-21T00:09:20;9.30;85.90
64561;DHT22;50960;46.838;16.838;2023-03-21T00:11:46;9.30;86.10
64561;DHT22;50960;46.838;16.838;2023-03-21T00:14:13;9.20;87.20
64561;DHT22;50960;46.838;16.838;2023-03-21T00:16:43;9.00;87.30
64561;DHT22;50960;46.838;16.838;2023-03-21T00:19:16;9.10;85.50
64561;DHT22;50960;46.838;16.838;2023-03-21T00:21:44;9.10;86.40
64561;DHT22;50960;46.838;16.838;2023-03-21T00:24:11;9.10;86.40
64561;DHT22;50960;46.838;16.838;2023-03-21T00:26:38;9.20;85.20
64561;DHT22;50960;46.838;16.838;2023-03-21T00:29:04;9.10;85.50
64561;DHT22;50960;46.838;16.838;2023-03-21T00:31:31;8.90;87.00
64561;DHT22;50960;46.838;16.838;2023-03-21T00:33:57;8.80;88.40
64561;DHT22;50960;46.838;16.838;2023-03-21T00:36:23;8.70;88.70
64561;DHT22;50960;46.838;16.838;2023-03-21T00:38:50;8.80;89.00
64561;DHT22;50960;46.838;16.838;2023-03-21T00:41:17;8.80;88.10
64561;DHT22;50960;46.838;16.838;2023-03-21T00:43:43;8.80;88.80
64561;DHT22;50960;46.838;16.838;2023-03-21T00:46:11;8.60;90.30
64561;DHT22;50960;46.838;16.838;2023-03-21T00:48:37;8.70;90.00
64561;DHT22;50960;46.838;16.838;2023-03-21T00:51:16;8.70;90.10
64561;DHT22;50960;46.838;16.838;2023-03-21T00:53:46;8.70;89.80
64561;DHT22;50960;46.838;16.838;2023-03-21T00:56:12;8.70;90.00
64561;DHT22;50960;46.838;16.838;2023-03-21T00:58:39;8.60;89.60
64561;DHT22;50960;46.838;16.838;2023-03-21T01:01:05;8.60;89.70
64561;DHT22;50960;46.838;16.838;2023-03-21T01:03:34;8.70;89.40
64561;DHT22;50960;46.838;16.838;2023-03-21T01:06:10;8.80;88.20
64561;DHT22;50960;46.838;16.838;2023-03-21T01:08:40;8.90;87.80
64561;DHT22;50960;46.838;16.838;2023-03-21T01:11:10;9.00;87.10
64561;DHT22;50960;46.838;16.838;2023-03-21T01:13:37;9.10;85.50
64561;DHT22;50960;46.838;16.838;2023-03-21T01:16:06;9.20;85.10
64561;DHT22;50960;46.838;16.838;2023-03-21T01:18:34;9.00;86.20
64561;DHT22;50960;46.838;16.838;2023-03-21T01:21:06;9.00;86.30
64561;DHT22;50960;46.838;16.838;2023-03-21T01:23:33;9.10;85.40
64561;DHT22;50960;46.838;16.838;2023-03-21T01:26:00;8.90;86.30
64561;DHT22;50960;46.838;16.838;2023-03-21T01:28:27;9.00;86.40
64561;DHT22;50960;46.838;16.838;2023-03-21T01:30:54;9.00;86.40
64561;DHT22;50960;46.838;16.838;2023-03-21T01:33:21;9.20;85.50
64561;DHT22;50960;46.838;16.838;2023-03-21T01:35:48;9.20;84.60
64561;DHT22;50960;46.838;16.838;2023-03-21T01:38:15;9.10;85.20
64561;DHT22;50960;46.838;16.838;2023-03-21T01:40:44;9.20;85.20
64561;DHT22;50960;46.838;16.838;2023-03-21T01:43:26;9.20;84.70
64561;DHT22;50960;46.838;16.838;2023-03-21T01:51:45;9.00;86.30
64561;DHT22;50960;46.838;16.838;2023-03-21T01:54:18;9.00;86.40
64561;DHT22;50960;46.838;16.838;2023-03-21T01:56:51;9.10;86.20
64561;DHT22;50960;46.838;16.838;2023-03-21T01:59:28;9.10;86.50
64561;DHT22;50960;46.838;16.838;2023-03-21T02:02:00;9.20;85.90
64561;DHT22;50960;46.838;16.838;2023-03-21T02:04:33;9.20;86.10
64561;DHT22;50960;46.838;16.838;2023-03-21T02:07:11;9.20;85.90
64561;DHT22;50960;46.838;16.838;2023-03-21T02:09:40;9.30;85.10
64561;DHT22;50960;46.838;16.838;2023-03-21T02:12:08;9.40;84.90
64561;DHT22;50960;46.838;16.838;2023-03-21T02:14:36;9.20;86.10
64561;DHT22;50960;46.838;16.838;2023-03-21T02:28:27;9.10;86.10
64561;DHT22;50960;46.838;16.838;2023-03-21T02:36:25;9.10;85.40
64561;DHT22;50960;46.838;16.838;2023-03-21T02:41:47;9.10;85.60
64561;DHT22;50960;46.838;16.838;2023-03-21T02:44:30;9.20;86.60
64561;DHT22;50960;46.838;16.838;2023-03-21T02:47:02;9.10;87.20
64561;DHT22;50960;46.838;16.838;2023-03-21T02:49:42;9.10;87.20
64561;DHT22;50960;46.838;16.838;2023-03-21T02:52:20;9.00;87.40
64561;DHT22;50960;46.838;16.838;2023-03-21T02:54:48;9.00;87.10
64561;DHT22;50960;46.838;16.838;2023-03-21T02:57:17;9.10;87.40
64561;DHT22;50960;46.838;16.838;2023-03-21T02:59:46;9.10;87.60
64561;DHT22;50960;46.838;16.838;2023-03-21T03:02:14;8.80;88.50
64561;DHT22;50960;46.838;16.838;2023-03-21T03:04:41;9.00;87.30
64561;DHT22;50960;46.838;16.838;2023-03-21T03:10:29;9.20;87.50
64561;DHT22;50960;46.838;16.838;2023-03-21T03:18:53;9.30;85.30
64561;DHT22;50960;46.838;16.838;2023-03-21T03:24:35;9.30;85.60
64561;DHT22;50960;46.838;16.838;2023-03-21T03:27:12;9.30;86.00
64561;DHT22;50960;46.838;16.838;2023-03-21T03:29:41;9.00;86.80
64561;DHT22;50960;46.838;16.838;2023-03-21T03:34:44;9.20;86.40
64561;DHT22;50960;46.838;16.838;2023-03-21T03:37:18;9.20;85.60
64561;DHT22;50960;46.838;16.838;2023-03-21T03:43:09;9.30;85.60
64561;DHT22;50960;46.838;16.838;2023-03-21T03:45:49;9.30;85.50
64561;DHT22;50960;46.838;16.838;2023-03-21T03:48:26;9.40;85.70
64561;DHT22;50960;46.838;16.838;2023-03-21T03:51:05;9.40;86.10
64561;DHT22;50960;46.838;16.838;2023-03-21T03:53:45;9.40;85.80
64561;DHT22;50960;46.838;16.838;2023-03-21T03:56:15;9.10;87.10
64561;DHT22;50960;46.838;16.838;2023-03-21T03:58:43;9.20;87.60
64561;DHT22;50960;46.838;16.838;2023-03-21T04:01:09;9.20;88.10
64561;DHT22;50960;46.838;16.838;2023-03-21T04:03:38;9.10;87.90
64561;DHT22;50960;46.838;16.838;2023-03-21T04:06:05;9.20;86.80
64561;DHT22;50960;46.838;16.838;2023-03-21T04:08:32;9.30;87.50
64561;DHT22;50960;46.838;16.838;2023-03-21T04:11:00;9.40;86.50
64561;DHT22;50960;46.838;16.838;2023-03-21T04:13:27;9.40;86.20
64561;DHT22;50960;46.838;16.838;2023-03-21T04:15:53;9.40;86.30
64561;DHT22;50960;46.838;16.838;2023-03-21T04:18:19;9.30;87.10
64561;DHT22;50960;46.838;16.838;2023-03-21T04:20:48;9.20;87.30
64561;DHT22;50960;46.838;16.838;2023-03-21T04:23:17;9.30;86.80
64561;DHT22;50960;46.838;16.838;2023-03-21T04:25:44;9.30;86.90
64561;DHT22;50960;46.838;16.838;2023-03-21T04:28:11;9.10;87.60
64561;DHT22;50960;46.838;16.838;2023-03-21T04:30:38;9.20;88.20
64561;DHT22;50960;46.838;16.838;2023-03-21T04:33:04;9.30;86.90
64561;DHT22;50960;46.838;16.838;2023-03-21T04:35:31;9.30;86.60
64561;DHT22;50960;46.838;16.838;2023-03-21T04:37:59;9.30;87.30
64561;DHT22;50960;46.838;16.838;2023-03-21T04:40:25;9.20;87.50
64561;DHT22;50960;46.838;16.838;2023-03-21T04:42:51;9.20;88.40
64561;DHT22;50960;46.838;16.838;2023-03-21T04:45:17;9.00;89.40
64561;DHT22;50960;46.838;16.838;2023-03-21T04:47:44;9.10;88.90
64561;DHT22;50960;46.838;16.838;2023-03-21T04:50:11;9.20;88.70
64561;DHT22;50960;46.838;16.838;2023-03-21T04:52:38;9.00;89.20
64561;DHT22;50960;46.838;16.838;2023-03-21T04:55:05;9.00;89.80
64561;DHT22;50960;46.838;16.838;2023-03-21T04:57:36;8.90;90.10
64561;DHT22;50960;46.838;16.838;2023-03-21T05:00:05;8.80;90.40
64561;DHT22;50960;46.838;16.838;2023-03-21T05:02:37;8.90;90.50
64561;DHT22;50960;46.838;16.838;2023-03-21T05:05:04;8.90;90.30
64561;DHT22;50960;46.838;16.838;2023-03-21T05:07:33;8.90;90.50
64561;DHT22;50960;46.838;16.838;2023-03-21T05:10:00;8.80;90.70
64561;DHT22;50960;46.838;16.838;2023-03-21T05:12:26;8.90;90.70
64561;DHT22;50960;46.838;16.838;2023-03-21T05:14:52;9.00;90.20
64561;DHT22;50960;46.838;16.838;2023-03-21T05:17:19;9.00;90.00
64561;DHT22;50960;46.838;16.838;2023-03-21T05:19:50;9.00;90.10
64561;DHT22;50960;46.838;16.838;2023-03-21T05:22:18;9.00;90.30
64561;DHT22;50960;46.838;16.838;2023-03-21T05:24:45;8.90;90.60
64561;DHT22;50960;46.838;16.838;2023-03-21T05:27:16;8.90;90.70
64561;DHT22;50960;46.838;16.838;2023-03-21T05:30:11;9.00;90.20
64561;DHT22;50960;46.838;16.838;2023-03-21T05:32:37;9.10;90.20
64561;DHT22;50960;46.838;16.838;2023-03-21T05:35:10;9.00;90.20
64561;DHT22;50960;46.838;16.838;2023-03-21T05:37:37;9.20;90.10
64561;DHT22;50960;46.838;16.838;2023-03-21T05:40:05;9.20;90.00
64561;DHT22;50960;46.838;16.838;2023-03-21T05:42:32;9.20;89.30
64561;DHT22;50960;46.838;16.838;2023-03-21T05:44:58;9.30;89.30
64561;DHT22;50960;46.838;16.838;2023-03-21T05:47:25;9.40;88.50
64561;DHT22;50960;46.838;16.838;2023-03-21T05:49:52;9.50;87.80
64561;DHT22;50960;46.838;16.838;2023-03-21T05:52:18;9.60;87.40
64561;DHT22;50960;46.838;16.838;2023-03-21T05:54:45;9.60;87.00
64561;DHT22;50960;46.838;16.838;2023-03-21T05:57:11;9.70;87.20
64561;DHT22;50960;46.838;16.838;2023-03-21T05:59:37;9.70;87.10
64561;DHT22;50960;46.838;16.838;2023-03-21T06:02:04;9.80;87.30
64561;DHT22;50960;46.838;16.838;2023-03-21T06:04:31;10.00;86.60
64561;DHT22;50960;46.838;16.838;2023-03-21T06:06:58;10.10;85.90
64561;DHT22;50960;46.838;16.838;2023-03-21T06:09:24;10.20;88.90
64561;DHT22;50960;46.838;16.838;2023-03-21T06:11:53;10.20;86.40
64561;DHT22;50960;46.838;16.838;2023-03-21T06:14:21;10.20;87.80
64561;DHT22;50960;46.838;16.838;2023-03-21T06:16:47;10.20;87.10
64561;DHT22;50960;46.838;16.838;2023-03-21T06:19:14;10.10;85.90
64561;DHT22;50960;46.838;16.838;2023-03-21T06:21:41;10.30;87.50
64561;DHT22;50960;46.838;16.838;2023-03-21T06:24:08;10.20;85.40
64561;DHT22;50960;46.838;16.838;2023-03-21T06:26:35;10.40;86.40
64561;DHT22;50960;46.838;16.838;2023-03-21T06:29:01;10.70;86.40
64561;DHT22;50960;46.838;16.838;2023-03-21T06:31:28;10.60;84.20
64561;DHT22;50960;46.838;16.838;2023-03-21T06:33:54;10.70;83.30
64561;DHT22;50960;46.838;16.838;2023-03-21T06:36:21;10.70;83.00
64561;DHT22;50960;46.838;16.838;2023-03-21T06:38:47;10.60;83.70
64561;DHT22;50960;46.838;16.838;2023-03-21T06:41:14;10.50;84.10
64561;DHT22;50960;46.838;16.838;2023-03-21T06:43:42;10.50;84.50
64561;DHT22;50960;46.838;16.838;2023-03-21T06:46:09;10.70;84.20
64561;DHT22;50960;46.838;16.838;2023-03-21T06:48:35;11.00;83.50
64561;DHT22;50960;46.838;16.838;2023-03-21T06:51:03;11.10;82.50
64561;DHT22;50960;46.838;16.838;2023-03-21T06:53:31;11.20;82.00
64561;DHT22;50960;46.838;16.838;2023-03-21T06:55:58;11.40;80.60
64561;DHT22;50960;46.838;16.838;2023-03-21T06:58:24;11.60;79.90
64561;DHT22;50960;46.838;16.838;2023-03-21T07:00:52;11.70;79.10
64561;DHT22;50960;46.838;16.838;2023-03-21T07:03:18;11.90;78.70
64561;DHT22;50960;46.838;16.838;2023-03-21T07:05:44;12.00;78.20
64561;DHT22;50960;46.838;16.838;2023-03-21T07:08:11;12.10;77.80
64561;DHT22;50960;46.838;16.838;2023-03-21T07:10:40;12.20;77.20
64561;DHT22;50960;46.838;16.838;2023-03-21T07:13:08;12.30;76.80
64561;DHT22;50960;46.838;16.838;2023-03-21T07:15:34;12.40;76.10
64561;DHT22;50960;46.838;16.838;2023-03-21T07:18:07;12.60;75.80
64561;DHT22;50960;46.838;16.838;2023-03-21T07:20:35;12.50;75.50
64561;DHT22;50960;46.838;16.838;2023-03-21T07:23:03;12.70;75.00
64561;DHT22;50960;46.838;16.838;2023-03-21T07:25:29;12.90;74.80
64561;DHT22;50960;46.838;16.838;2023-03-21T07:27:56;12.80;75.60
64561;DHT22;50960;46.838;16.838;2023-03-21T07:30:23;12.80;73.80
64561;DHT22;50960;46.838;16.838;2023-03-21T07:32:49;12.80;74.00
64561;DHT22;50960;46.838;16.838;2023-03-21T07:35:16;13.00;72.70
64561;DHT22;50960;46.838;16.838;2023-03-21T07:37:43;13.20;71.70
64561;DHT22;50960;46.838;16.838;2023-03-21T07:40:10;13.10;71.00
64561;DHT22;50960;46.838;16.838;2023-03-21T07:42:41;13.30;70.90
64561;DHT22;50960;46.838;16.838;2023-03-21T07:45:08;13.40;70.40
64561;DHT22;50960;46.838;16.838;2023-03-21T07:47:34;13.60;69.30
64561;DHT22;50960;46.838;16.838;2023-03-21T07:50:02;13.60;68.80
64561;DHT22;50960;46.838;16.838;2023-03-21T07:52:31;13.70;68.50
64561;DHT22;50960;46.838;16.838;2023-03-21T07:54:58;13.30;66.20
64561;DHT22;50960;46.838;16.838;2023-03-21T07:57:24;13.10;66.90
64561;DHT22;50960;46.838;16.838;2023-03-21T07:59:51;13.10;68.40
64561;DHT22;50960;46.838;16.838;2023-03-21T08:02:17;13.00;66.50
64561;DHT22;50960;46.838;16.838;2023-03-21T08:04:44;12.90;66.80
64561;DHT22;50960;46.838;16.838;2023-03-21T08:07:11;12.90;67.20
64561;DHT22;50960;46.838;16.838;2023-03-21T08:09:37;12.80;67.90
64561;DHT22;50960;46.838;16.838;2023-03-21T08:12:05;12.70;68.30
64561;DHT22;50960;46.838;16.838;2023-03-21T08:14:33;12.70;68.50
64561;DHT22;50960;46.838;16.838;2023-03-21T08:17:02;12.70;68.70
64561;DHT22;50960;46.838;16.838;2023-03-21T08:19:29;12.80;68.80
64561;DHT22;50960;46.838;16.838;2023-03-21T08:21:56;12.90;69.20
64561;DHT22;50960;46.838;16.838;2023-03-21T08:24:27;12.80;69.10
64561;DHT22;50960;46.838;16.838;2023-03-21T08:26:54;12.80;68.80
64561;DHT22;50960;46.838;16.838;2023-03-21T08:29:20;12.80;68.70
64561;DHT22;50960;46.838;16.838;2023-03-21T08:31:47;12.90;69.10
64561;DHT22;50960;46.838;16.838;2023-03-21T08:34:14;13.00;68.80
64561;DHT22;50960;46.838;16.838;2023-03-21T08:36:43;13.10;69.30
64561;DHT22;50960;46.838;16.838;2023-03-21T08:39:09;13.20;68.90
64561;DHT22;50960;46.838;16.838;2023-03-21T08:41:36;13.20;68.00
64561;DHT22;50960;46.838;16.838;2023-03-21T08:44:04;13.30;68.70
64561;DHT22;50960;46.838;16.838;2023-03-21T08:46:34;13.40;67.20
64561;DHT22;50960;46.838;16.838;2023-03-21T08:49:00;13.50;66.90
64561;DHT22;50960;46.838;16.838;2023-03-21T08:51:27;13.60;67.00
64561;DHT22;50960;46.838;16.838;2023-03-21T08:53:53;13.70;65.60
64561;DHT22;50960;46.838;16.838;2023-03-21T08:56:19;13.70;66.00
64561;DHT22;50960;46.838;16.838;2023-03-21T08:58:45;13.80;65.40
64561;DHT22;50960;46.838;16.838;2023-03-21T09:01:12;13.80;66.40
64561;DHT22;50960;46.838;16.838;2023-03-21T09:03:41;13.90;67.20
64561;DHT22;50960;46.838;16.838;2023-03-21T09:06:09;14.00;66.70
64561;DHT22;50960;46.838;16.838;2023-03-21T09:08:37;14.10;64.30
64561;DHT22;50960;46.838;16.838;2023-03-21T09:11:03;14.10;64.20
64561;DHT22;50960;46.838;16.838;2023-03-21T09:13:30;14.30;63.90
64561;DHT22;50960;46.838;16.838;2023-03-21T09:15:56;14.60;60.40
64561;DHT22;50960;46.838;16.838;2023-03-21T09:21:08;14.90;57.20
64561;DHT22;50960;46.838;16.838;2023-03-21T09:23:38;15.10;54.40
64561;DHT22;50960;46.838;16.838;2023-03-21T09:26:05;15.10;55.00
64561;DHT22;50960;46.838;16.838;2023-03-21T09:28:32;15.20;53.60
64561;DHT22;50960;46.838;16.838;2023-03-21T09:31:00;15.30;54.80
64561;DHT22;50960;46.838;16.838;2023-03-21T09:33:27;15.40;54.00
64561;DHT22;50960;46.838;16.838;2023-03-21T09:35:55;15.40;53.40
64561;DHT22;50960;46.838;16.838;2023-03-21T09:38:26;15.50;52.00
64561;DHT22;50960;46.838;16.838;2023-03-21T09:41:30;15.50;53.00
64561;DHT22;50960;46.838;16.838;2023-03-21T09:44:28;15.50;53.00
64561;DHT22;50960;46.838;16.838;2023-03-21T09:53:00;16.10;53.70
64561;DHT22;50960;46.838;16.838;2023-03-21T09:55:32;16.30;50.90
64561;DHT22;50960;46.838;16.838;2023-03-21T10:01:19;16.60;50.40
64561;DHT22;50960;46.838;16.838;2023-03-21T10:03:56;17.10;49.80
64561;DHT22;50960;46.838;16.838;2023-03-21T10:06:25;17.10;49.20
64561;DHT22;50960;46.838;16.838;2023-03-21T10:09:16;17.30;50.80
64561;DHT22;50960;46.838;16.838;2023-03-21T10:14:40;17.40;47.60
64561;DHT22;50960;46.838;16.838;2023-03-21T10:17:40;16.70;46.90
64561;DHT22;50960;46.838;16.838;2023-03-21T10:20:18;16.40;49.00
64561;DHT22;50960;46.838;16.838;2023-03-21T10:22:48;16.20;49.80
64561;DHT22;50960;46.838;16.838;2023-03-21T10:25:23;16.20;50.10
64561;DHT22;50960;46.838;16.838;2023-03-21T10:27:50;16.50;49.90
64561;DHT22;50960;46.838;16.838;2023-03-21T10:32:58;16.70;48.40
64561;DHT22;50960;46.838;16.838;2023-03-21T10:35:34;16.60;47.60
64561;DHT22;50960;46.838;16.838;2023-03-21T10:38:03;16.70;47.90
64561;DHT22;50960;46.838;16.838;2023-03-21T10:40:30;16.90;47.70
64561;DHT22;50960;46.838;16.838;2023-03-21T10:43:15;17.00;47.00
64561;DHT22;50960;46.838;16.838;2023-03-21T10:45:45;17.20;47.40
64561;DHT22;50960;46.838;16.838;2023-03-21T10:48:12;17.70;46.90
64561;DHT22;50960;46.838;16.838;2023-03-21T10:50:38;17.90;46.30
64561;DHT22;50960;46.838;16.838;2023-03-21T10:53:26;17.40;45.40
64561;DHT22;50960;46.838;16.838;2023-03-21T10:55:56;17.00;45.70
64561;DHT22;50960;46.838;16.838;2023-03-21T10:58:29;17.10;46.40
64561;DHT22;50960;46.838;16.838;2023-03-21T11:01:02;17.00;45.70
64561;DHT22;50960;46.838;16.838;2023-03-21T11:03:38;17.10;46.10
64561;DHT22;50960;46.838;16.838;2023-03-21T11:06:26;17.30;45.70
64561;DHT22;50960;46.838;16.838;2023-03-21T11:08:55;17.50;45.40
64561;DHT22;50960;46.838;16.838;2023-03-21T11:11:28;17.70;45.00
64561;DHT22;50960;46.838;16.838;2023-03-21T11:14:00;17.70;45.60
64561;DHT22;50960;46.838;16.838;2023-03-21T11:16:42;17.90;44.40
64561;DHT22;50960;46.838;16.838;2023-03-21T11:19:34;18.10;45.80
64561;DHT22;50960;46.838;16.838;2023-03-21T11:22:05;18.00;43.40
64561;DHT22;50960;46.838;16.838;2023-03-21T11:24:32;17.90;43.60
64561;DHT22;50960;46.838;16.838;2023-03-21T11:27:05;18.00;43.80
64561;DHT22;50960;46.838;16.838;2023-03-21T11:29:35;18.40;43.60
64561;DHT22;50960;46.838;16.838;2023-03-21T11:32:12;18.80;42.70
64561;DHT22;50960;46.838;16.838;2023-03-21T11:34:50;18.90;42.50
64561;DHT22;50960;46.838;16.838;2023-03-21T11:37:49;19.00;41.80
64561;DHT22;50960;46.838;16.838;2023-03-21T11:40:31;19.10;41.70
64561;DHT22;50960;46.838;16.838;2023-03-21T11:43:00;19.00;42.00
64561;DHT22;50960;46.838;16.838;2023-03-21T11:45:29;18.60;40.80
64561;DHT22;50960;46.838;16.838;2023-03-21T11:48:01;18.60;40.40
64561;DHT22;50960;46.838;16.838;2023-03-21T11:50:37;18.40;40.50
64561;DHT22;50960;46.838;16.838;2023-03-21T11:53:36;18.30;40.60
64561;DHT22;50960;46.838;16.838;2023-03-21T11:56:19;18.40;39.40
64561;DHT22;50960;46.838;16.838;2023-03-21T12:04:51;19.90;37.30
64561;DHT22;50960;46.838;16.838;2023-03-21T12:15:19;19.50;37.90
64561;DHT22;50960;46.838;16.838;2023-03-21T12:21:14;19.70;37.70
64561;DHT22;50960;46.838;16.838;2023-03-21T12:31:24;21.10;34.70
64561;DHT22;50960;46.838;16.838;2023-03-21T12:39:19;24.10;33.30
64561;DHT22;50960;46.838;16.838;2023-03-21T12:44:25;22.10;33.20
64561;DHT22;50960;46.838;16.838;2023-03-21T12:47:04;21.60;34.40
64561;DHT22;50960;46.838;16.838;2023-03-21T12:52:15;21.10;33.80
64561;DHT22;50960;46.838;16.838;2023-03-21T12:57:48;22.00;32.40
64561;DHT22;50960;46.838;16.838;2023-03-21T13:02:58;20.50;34.80
64561;DHT22;50960;46.838;16.838;2023-03-21T13:05:43;20.40;34.80
64561;DHT22;50960;46.838;16.838;2023-03-21T13:08:23;20.80;35.00
64561;DHT22;50960;46.838;16.838;2023-03-21T13:10:51;21.00;35.00
64561;DHT22;50960;46.838;16.838;2023-03-21T13:13:27;21.10;34.60
64561;DHT22;50960;46.838;16.838;2023-03-21T13:18:56;20.70;36.30
64561;DHT22;50960;46.838;16.838;2023-03-21T13:21:39;21.10;34.80
64561;DHT22;50960;46.838;16.838;2023-03-21T13:27:06;22.00;34.50
64561;DHT22;50960;46.838;16.838;2023-03-21T13:29:47;22.10;33.30
64561;DHT22;50960;46.838;16.838;2023-03-21T13:32:38;22.20;34.10
64561;DHT22;50960;46.838;16.838;2023-03-21T13:35:31;22.30;34.50
64561;DHT22;50960;46.838;16.838;2023-03-21T13:38:04;22.10;34.60
64561;DHT22;50960;46.838;16.838;2023-03-21T13:40:46;22.00;34.70
64561;DHT22;50960;46.838;16.838;2023-03-21T13:51:46;21.60;35.50
64561;DHT22;50960;46.838;16.838;2023-03-21T13:57:05;22.90;34.60
64561;DHT22;50960;46.838;16.838;2023-03-21T13:59:38;23.00;33.00
64561;DHT22;50960;46.838;16.838;2023-03-21T14:04:42;23.50;32.20
64561;DHT22;50960;46.838;16.838;2023-03-21T14:07:11;23.30;32.20
64561;DHT22;50960;46.838;16.838;2023-03-21T14:09:42;22.80;32.70
64561;DHT22;50960;46.838;16.838;2023-03-21T14:12:30;22.90;33.40
64561;DHT22;50960;46.838;16.838;2023-03-21T14:15:03;22.90;33.00
64561;DHT22;50960;46.838;16.838;2023-03-21T14:17:33;22.90;32.70
64561;DHT22;50960;46.838;16.838;2023-03-21T14:20:07;22.50;33.40
64561;DHT22;50960;46.838;16.838;2023-03-21T14:22:40;22.30;33.60
64561;DHT22;50960;46.838;16.838;2023-03-21T14:25:18;22.60;34.50
64561;DHT22;50960;46.838;16.838;2023-03-21T14:27:59;22.40;33.60
64561;DHT22;50960;46.838;16.838;2023-03-21T14:30:30;22.10;33.40
64561;DHT22;50960;46.838;16.838;2023-03-21T14:32:59;21.80;33.10
64561;DHT22;50960;46.838;16.838;2023-03-21T14:35:31;22.90;32.30
64561;DHT22;50960;46.838;16.838;2023-03-21T14:38:06;23.60;30.80
64561;DHT22;50960;46.838;16.838;2023-03-21T14:40:34;23.50;30.60
64561;DHT22;50960;46.838;16.838;2023-03-21T14:43:05;22.90;30.30
64561;DHT22;50960;46.838;16.838;2023-03-21T14:45:34;22.60;31.10
64561;DHT22;50960;46.838;16.838;2023-03-21T14:48:11;22.80;31.40
64561;DHT22;50960;46.838;16.838;2023-03-21T14:50:50;22.10;31.90
64561;DHT22;50960;46.838;16.838;2023-03-21T14:53:21;21.80;32.60
64561;DHT22;50960;46.838;16.838;2023-03-21T14:55:58;23.60;33.20
64561;DHT22;50960;46.838;16.838;2023-03-21T14:58:25;29.30;28.40
64561;DHT22;50960;46.838;16.838;2023-03-21T15:01:04;31.50;24.10
64561;DHT22;50960;46.838;16.838;2023-03-21T15:03:31;33.10;25.70
64561;DHT22;50960;46.838;16.838;2023-03-21T15:05:59;33.30;24.00
64561;DHT22;50960;46.838;16.838;2023-03-21T15:08:28;32.40;26.10
64561;DHT22;50960;46.838;16.838;2023-03-21T15:10:59;32.50;25.90
64561;DHT22;50960;46.838;16.838;2023-03-21T15:13:28;32.30;26.00
64561;DHT22;50960;46.838;16.838;2023-03-21T15:15:55;32.20;24.90
64561;DHT22;50960;46.838;16.838;2023-03-21T15:18:28;32.60;25.60
64561;DHT22;50960;46.838;16.838;2023-03-21T15:20:57;33.50;24.50
64561;DHT22;50960;46.838;16.838;2023-03-21T15:23:29;32.80;24.30
64561;DHT22;50960;46.838;16.838;2023-03-21T15:25:57;32.30;22.80
64561;DHT22;50960;46.838;16.838;2023-03-21T15:28:29;33.30;23.20
64561;DHT22;50960;46.838;16.838;2023-03-21T15:30:55;33.80;22.40
64561;DHT22;50960;46.838;16.838;2023-03-21T15:33:24;33.70;22.80
64561;DHT22;50960;46.838;16.838;2023-03-21T15:35:56;36.90;22.60
64561;DHT22;50960;46.838;16.838;2023-03-21T15:38:32;39.60;20.80
64561;DHT22;50960;46.838;16.838;2023-03-21T15:44:12;43.90;19.80
64561;DHT22;50960;46.838;16.838;2023-03-21T15:46:46;44.40;18.70
64561;DHT22;50960;46.838;16.838;2023-03-21T15:51:55;44.70;18.30
64561;DHT22;50960;46.838;16.838;2023-03-21T15:54:33;45.90;18.20
64561;DHT22;50960;46.838;16.838;2023-03-21T15:57:05;43.50;17.60
64561;DHT22;50960;46.838;16.838;2023-03-21T15:59:44;42.70;18.60
64561;DHT22;50960;46.838;16.838;2023-03-21T16:02:23;43.20;17.80
64561;DHT22;50960;46.838;16.838;2023-03-21T16:05:02;44.10;18.10
64561;DHT22;50960;46.838;16.838;2023-03-21T16:07:44;43.80;17.70
64561;DHT22;50960;46.838;16.838;2023-03-21T16:12:53;37.60;17.70
64561;DHT22;50960;46.838;16.838;2023-03-21T16:15:21;34.50;20.20
64561;DHT22;50960;46.838;16.838;2023-03-21T16:17:50;32.20;22.00
64561;DHT22;50960;46.838;16.838;2023-03-21T16:20:21;30.50;23.40
64561;DHT22;50960;46.838;16.838;2023-03-21T16:22:49;29.50;23.90
64561;DHT22;50960;46.838;16.838;2023-03-21T16:25:16;28.90;24.80
64561;DHT22;50960;46.838;16.838;2023-03-21T16:27:45;28.50;25.10
64561;DHT22;50960;46.838;16.838;2023-03-21T16:30:13;27.40;25.70
64561;DHT22;50960;46.838;16.838;2023-03-21T16:32:40;26.40;26.50
64561;DHT22;50960;46.838;16.838;2023-03-21T16:35:07;25.60;27.20
64561;DHT22;50960;46.838;16.838;2023-03-21T16:37:34;24.70;28.20
64561;DHT22;50960;46.838;16.838;2023-03-21T16:40:00;24.20;29.00
64561;DHT22;50960;46.838;16.838;2023-03-21T16:42:26;23.60;29.60
64561;DHT22;50960;46.838;16.838;2023-03-21T16:44:53;23.10;30.30
64561;DHT22;50960;46.838;16.838;2023-03-21T16:47:20;22.50;31.70
64561;DHT22;50960;46.838;16.838;2023-03-21T16:49:48;22.20;31.90
64561;DHT22;50960;46.838;16.838;2023-03-21T16:52:15;21.80;32.70
64561;DHT22;50960;46.838;16.838;2023-03-21T16:54:42;21.30;34.30
64561;DHT22;50960;46.838;16.838;2023-03-21T16:57:34;20.90;34.70
64561;DHT22;50960;46.838;16.838;2023-03-21T17:00:01;20.50;36.10
64561;DHT22;50960;46.838;16.838;2023-03-21T17:02:27;20.00;37.80
64561;DHT22;50960;46.838;16.838;2023-03-21T17:04:53;19.80;37.20
64561;DHT22;50960;46.838;16.838;2023-03-21T17:07:21;19.60;37.60
64561;DHT22;50960;46.838;16.838;2023-03-21T17:09:49;19.20;38.00
64561;DHT22;50960;46.838;16.838;2023-03-21T17:12:15;19.20;38.70
64561;DHT22;50960;46.838;16.838;2023-03-21T17:14:43;18.90;39.10
64561;DHT22;50960;46.838;16.838;2023-03-21T17:17:14;18.80;39.50
64561;DHT22;50960;46.838;16.838;2023-03-21T17:19:42;18.60;39.50
64561;DHT22;50960;46.838;16.838;2023-03-21T17:22:09;18.50;39.90
64561;DHT22;50960;46.838;16.838;2023-03-21T17:24:35;18.30;40.20
64561;DHT22;50960;46.838;16.838;2023-03-21T17:27:03;18.20;40.70
64561;DHT22;50960;46.838;16.838;2023-03-21T17:29:30;17.90;40.80
64561;DHT22;50960;46.838;16.838;2023-03-21T17:31:56;17.90;41.60
64561;DHT22;50960;46.838;16.838;2023-03-21T17:34:23;17.70;41.80
64561;DHT22;50960;46.838;16.838;2023-03-21T17:36:49;17.60;42.10
64561;DHT22;50960;46.838;16.838;2023-03-21T17:39:21;17.50;42.40
64561;DHT22;50960;46.838;16.838;2023-03-21T17:41:50;17.30;43.30
64561;DHT22;50960;46.838;16.838;2023-03-21T17:44:18;17.20;43.00
64561;DHT22;50960;46.838;16.838;2023-03-21T17:46:44;17.10;43.50
64561;DHT22;50960;46.838;16.838;2023-03-21T17:49:14;17.00;44.30
64561;DHT22;50960;46.838;16.838;2023-03-21T17:51:42;16.90;44.50